createdAt,value
2023-01-30T00:01:57.072Z,100.00
2023-01-30T00:07:55.402Z,100.00
2023-01-30T00:21:12.151Z,100.00
2023-01-30T01:32:35.585Z,100.00
2023-01-30T01:46:01.434Z,100.00
2023-01-30T05:38:42.311Z,100.00
2023-01-30T06:14:57.865Z,100.00
2023-01-30T06:17:27.925Z,100.00
2023-01-30T08:13:10.915Z,94.65
2023-01-30T08:53:53.987Z,88.34
2023-01-30T08:59:23.486Z,88.61
2023-01-30T09:02:26.461Z,88.66
2023-01-30T09:18:45.472Z,86.91
2023-01-30T09:21:15.194Z,87.01
2023-01-30T09:23:43.637Z,88.25
2023-01-30T09:26:14.229Z,88.52
2023-01-30T09:28:42.714Z,89.80
2023-01-30T09:31:11.350Z,90.45
2023-01-30T09:33:41.688Z,93.80
2023-01-30T09:36:15.803Z,95.65
2023-01-30T09:38:44.626Z,96.38
2023-01-30T09:41:33.981Z,99.34
2023-01-30T09:44:16.772Z,99.06
2023-01-30T09:46:53.122Z,99.15
2023-01-30T09:49:33.504Z,98.96
2023-01-30T09:52:18.313Z,97.92
2023-01-30T09:54:48.042Z,98.17
2023-01-30T09:57:21.092Z,94.63
2023-01-30T09:59:57.181Z,93.87
2023-01-30T10:02:55.713Z,94.45
2023-01-30T10:05:27.436Z,98.10
2023-01-30T10:08:31.431Z,100.00
2023-01-30T10:11:10.721Z,100.00
2023-01-30T10:17:51.647Z,97.12
2023-01-30T10:24:19.689Z,100.00
2023-01-30T10:29:50.804Z,96.75
2023-01-30T10:32:21.908Z,95.85
2023-01-30T10:34:55.007Z,94.67
2023-01-30T10:37:28.213Z,93.77
2023-01-30T10:40:08.242Z,91.52
2023-01-30T10:42:40.834Z,91.25
2023-01-30T10:45:15.084Z,95.88
2023-01-30T10:47:50.759Z,96.29
2023-01-30T10:50:21.725Z,93.99
2023-01-30T10:52:58.450Z,92.92
2023-01-30T10:55:37.939Z,90.40
2023-01-30T10:58:15.972Z,90.68
2023-01-30T11:00:48.144Z,92.41
2023-01-30T11:03:23.689Z,90.89
2023-01-30T11:05:54.142Z,91.99
2023-01-30T11:08:25.386Z,96.42
2023-01-30T11:10:56.317Z,95.89
2023-01-30T11:13:30.337Z,94.76
2023-01-30T11:16:02.122Z,94.75
2023-01-30T11:21:27.063Z,98.08
2023-01-30T11:24:06.134Z,98.73
2023-01-30T11:26:47.280Z,97.40
2023-01-30T11:29:30.371Z,98.97
2023-01-30T11:32:04.599Z,97.87
2023-01-30T11:34:32.911Z,100.00
2023-01-30T11:37:15.895Z,100.00
2023-01-30T11:39:52.223Z,100.00
2023-01-30T11:42:27.360Z,100.00
2023-01-30T11:45:15.690Z,100.00
2023-01-30T11:48:03.908Z,100.00
2023-01-30T11:50:42.501Z,99.80
2023-01-30T11:53:35.254Z,99.36
2023-01-30T11:56:18.853Z,100.00
2023-01-30T12:02:35.360Z,99.44
2023-01-30T12:05:06.991Z,99.46
2023-01-30T12:07:37.828Z,97.98
2023-01-30T12:10:31.338Z,97.52
2023-01-30T12:13:12.267Z,98.75
2023-01-30T12:15:45.827Z,97.12
2023-01-30T12:18:19.812Z,96.45
2023-01-30T12:20:55.970Z,96.69
2023-01-30T12:23:35.317Z,95.38
2023-01-30T12:26:26.451Z,93.21
2023-01-30T12:29:15.254Z,92.51
2023-01-30T12:35:27.386Z,95.37
2023-01-30T12:44:23.079Z,94.06
2023-01-30T12:47:22.377Z,95.87
2023-01-30T12:50:08.334Z,94.89
2023-01-30T12:53:03.180Z,94.93
2023-01-30T12:56:19.472Z,94.10
2023-01-30T13:05:56.343Z,94.17
2023-01-30T13:08:44.841Z,95.23
2023-01-30T13:11:29.451Z,94.77
2023-01-30T13:14:05.186Z,96.10
2023-01-30T13:19:58.152Z,96.32
2023-01-30T13:22:46.171Z,94.98
2023-01-30T13:25:59.744Z,96.24
2023-01-30T13:29:06.853Z,96.20
2023-01-30T13:31:50.043Z,96.11
2023-01-30T13:37:24.910Z,98.58
2023-01-30T13:40:16.976Z,97.65
2023-01-30T14:06:04.677Z,96.22
2023-01-30T14:15:08.370Z,98.87
2023-01-30T14:23:57.836Z,99.76
2023-01-30T14:26:58.846Z,100.00
2023-01-30T14:46:58.350Z,100.00
2023-01-30T14:49:45.132Z,100.00
2023-01-30T14:52:47.055Z,100.00
2023-01-30T14:58:21.031Z,100.00
2023-01-30T15:01:01.343Z,100.00
2023-01-30T15:03:47.435Z,100.00
2023-01-30T15:06:31.972Z,100.00
2023-01-30T15:09:03.056Z,100.00
2023-01-30T15:11:51.796Z,100.00
2023-01-30T15:14:43.073Z,100.00
2023-01-30T15:20:40.677Z,100.00
2023-01-30T15:30:05.903Z,100.00
2023-01-30T15:32:36.485Z,100.00
2023-01-30T15:35:45.500Z,100.00
2023-01-30T15:38:31.283Z,100.00
2023-01-30T15:44:20.931Z,100.00
2023-01-30T15:47:02.799Z,100.00
2023-01-30T15:49:58.201Z,100.00
2023-01-30T15:52:38.113Z,100.00
2023-01-30T16:04:08.213Z,100.00
2023-01-30T16:06:42.345Z,100.00
2023-01-30T16:12:27.531Z,100.00
2023-01-30T16:21:00.736Z,100.00
2023-01-30T16:23:33.229Z,100.00
2023-01-30T16:26:02.579Z,100.00
2023-01-30T16:28:33.340Z,100.00
2023-01-30T16:31:21.321Z,100.00
2023-01-30T16:36:40.683Z,100.00
2023-01-30T16:39:29.125Z,100.00
2023-01-30T16:41:59.942Z,100.00
2023-01-30T16:44:34.257Z,100.00
2023-01-30T16:47:06.084Z,100.00
2023-01-30T16:49:44.471Z,100.00
2023-01-30T16:52:21.252Z,100.00
2023-01-30T16:54:52.868Z,100.00
2023-01-30T16:57:40.690Z,100.00
2023-01-30T17:00:21.265Z,100.00
2023-01-30T17:02:53.271Z,100.00
2023-01-30T17:05:24.046Z,100.00
2023-01-30T17:07:56.223Z,100.00
2023-01-30T17:10:54.249Z,100.00
2023-01-30T17:13:33.916Z,100.00
2023-01-30T17:16:29.217Z,100.00
2023-01-30T17:18:58.560Z,100.00
2023-01-30T17:21:30.663Z,100.00
2023-01-30T17:24:02.924Z,100.00
2023-01-30T17:26:32.256Z,100.00
2023-01-30T17:29:00.988Z,100.00
2023-01-30T17:31:29.563Z,100.00
2023-01-30T17:33:59.489Z,100.00
2023-01-30T17:36:29.674Z,100.00
2023-01-30T17:39:00.622Z,100.00
2023-01-30T17:41:32.672Z,100.00
2023-01-30T17:44:00.966Z,100.00
2023-01-30T17:46:35.372Z,100.00
2023-01-30T17:49:04.011Z,100.00
2023-01-30T17:51:32.183Z,100.00
2023-01-30T17:54:02.953Z,100.00
2023-01-30T17:56:38.075Z,100.00
2023-01-30T17:59:07.454Z,100.00
2023-01-30T18:01:35.669Z,100.00
2023-01-30T18:04:04.153Z,100.00
2023-01-30T18:06:32.505Z,100.00
2023-01-30T18:09:02.415Z,100.00
2023-01-30T18:11:31.040Z,100.00
2023-01-30T18:13:59.554Z,100.00
2023-01-30T18:16:31.292Z,100.00
2023-01-30T18:19:03.553Z,100.00
2023-01-30T18:21:31.938Z,100.00
2023-01-30T18:24:01.955Z,100.00
2023-01-30T18:26:31.435Z,100.00
2023-01-30T18:29:00.163Z,100.00
2023-01-30T18:31:31.030Z,100.00
2023-01-30T18:33:59.878Z,100.00
2023-01-30T18:36:28.075Z,100.00
2023-01-30T18:38:56.766Z,100.00
2023-01-30T18:41:27.136Z,100.00
2023-01-30T18:43:56.193Z,100.00
2023-01-30T18:46:24.746Z,100.00
2023-01-30T18:48:53.161Z,100.00
2023-01-30T18:51:23.565Z,100.00
2023-01-30T18:53:54.205Z,100.00
2023-01-30T18:56:24.411Z,100.00
2023-01-30T18:58:56.630Z,100.00
2023-01-30T19:01:26.989Z,100.00
2023-01-30T19:03:55.848Z,100.00
2023-01-30T19:06:24.795Z,100.00
2023-01-30T19:08:54.179Z,100.00
2023-01-30T19:11:40.792Z,100.00
2023-01-30T19:14:11.427Z,100.00
2023-01-30T19:16:41.063Z,100.00
2023-01-30T19:19:10.905Z,100.00
2023-01-30T19:21:39.686Z,100.00
2023-01-30T19:24:09.847Z,100.00
2023-01-30T19:26:38.168Z,100.00
2023-01-30T19:29:06.891Z,100.00
2023-01-30T19:31:37.701Z,100.00
2023-01-30T19:34:06.504Z,100.00
2023-01-30T19:36:36.074Z,100.00
2023-01-30T19:39:06.407Z,100.00
2023-01-30T19:41:36.565Z,100.00
2023-01-30T19:44:07.209Z,100.00
2023-01-30T19:46:37.568Z,100.00
2023-01-30T19:49:06.783Z,100.00
2023-01-30T19:51:36.166Z,100.00
2023-01-30T19:54:07.370Z,100.00
2023-01-30T19:56:36.764Z,100.00
2023-01-30T19:59:05.144Z,100.00
2023-01-30T20:01:37.739Z,100.00
2023-01-30T20:04:07.862Z,100.00
2023-01-30T20:06:37.768Z,100.00
2023-01-30T20:09:07.639Z,100.00
2023-01-30T20:11:37.666Z,100.00
2023-01-30T20:14:07.376Z,100.00
2023-01-30T20:16:37.768Z,100.00
2023-01-30T20:19:09.783Z,100.00
2023-01-30T20:21:38.183Z,100.00
2023-01-30T20:24:07.740Z,100.00
2023-01-30T20:26:40.013Z,100.00
2023-01-30T20:29:10.801Z,100.00
2023-01-30T20:31:40.446Z,100.00
2023-01-30T20:34:13.453Z,100.00
2023-01-30T20:36:41.836Z,100.00
2023-01-30T20:39:10.536Z,100.00
2023-01-30T20:41:39.811Z,100.00
2023-01-30T20:44:10.087Z,100.00
2023-01-30T20:46:41.845Z,100.00
2023-01-30T20:49:14.262Z,100.00
2023-01-30T20:51:43.028Z,100.00
2023-01-30T20:54:13.398Z,100.00
2023-01-30T20:56:44.280Z,100.00
2023-01-30T20:59:15.123Z,100.00
2023-01-30T21:01:43.688Z,100.00
2023-01-30T21:04:16.038Z,100.00
2023-01-30T21:06:46.936Z,100.00
2023-01-30T21:09:17.695Z,100.00
2023-01-30T21:11:46.856Z,100.00
2023-01-30T21:14:15.975Z,100.00
2023-01-30T21:16:45.079Z,100.00
2023-01-30T21:19:17.649Z,100.00
2023-01-30T21:21:51.254Z,100.00
2023-01-30T21:24:22.163Z,100.00
2023-01-30T21:26:50.829Z,100.00
2023-01-30T21:29:21.242Z,100.00
2023-01-30T21:31:49.565Z,100.00
2023-01-30T21:34:19.403Z,100.00
2023-01-30T21:37:08.402Z,100.00
2023-01-30T21:39:53.819Z,100.00
2023-01-30T21:42:39.416Z,100.00
2023-01-30T21:45:09.082Z,100.00
2023-01-30T21:47:37.324Z,100.00
2023-01-30T21:50:08.375Z,100.00
2023-01-30T21:52:36.984Z,100.00
2023-01-30T21:55:05.702Z,100.00
2023-01-30T21:57:34.167Z,100.00
2023-01-30T22:00:02.316Z,100.00
2023-01-30T22:02:30.535Z,100.00
2023-01-30T22:04:58.619Z,100.00
2023-01-30T22:07:29.812Z,100.00
2023-01-30T22:09:58.570Z,100.00
2023-01-30T22:12:27.593Z,100.00
2023-01-30T22:14:57.061Z,100.00
2023-01-30T22:17:25.720Z,100.00
2023-01-30T22:20:05.073Z,100.00
2023-01-30T22:22:35.182Z,100.00
2023-01-30T22:25:03.315Z,100.00
2023-01-30T22:27:31.695Z,100.00
2023-01-30T22:29:59.972Z,100.00
2023-01-30T22:32:28.278Z,100.00
2023-01-30T22:34:56.428Z,100.00
2023-01-30T22:37:25.029Z,100.00
2023-01-30T22:39:55.106Z,100.00
2023-01-30T22:42:23.285Z,100.00
2023-01-30T22:44:51.677Z,100.00
2023-01-30T22:47:19.907Z,100.00
2023-01-30T22:49:48.311Z,100.00
2023-01-30T22:52:16.941Z,100.00
2023-01-30T22:54:45.581Z,100.00
2023-01-30T22:57:15.548Z,100.00
2023-01-30T22:59:43.790Z,100.00
2023-01-30T23:02:12.316Z,100.00
2023-01-30T23:04:41.330Z,100.00
2023-01-30T23:07:10.655Z,100.00
2023-01-30T23:09:39.163Z,100.00
2023-01-30T23:12:25.243Z,100.00
2023-01-30T23:14:55.183Z,100.00
2023-01-30T23:17:40.807Z,100.00
2023-01-30T23:20:10.506Z,100.00
2023-01-30T23:22:38.975Z,100.00
2023-01-30T23:25:09.339Z,100.00
2023-01-30T23:27:37.804Z,100.00
2023-01-30T23:30:09.749Z,100.00
2023-01-30T23:32:38.131Z,100.00
2023-01-30T23:35:07.146Z,100.00
2023-01-30T23:37:52.881Z,100.00
2023-01-30T23:40:21.988Z,100.00
2023-01-30T23:42:50.138Z,100.00
2023-01-30T23:45:20.351Z,100.00
2023-01-30T23:47:48.643Z,100.00
2023-01-30T23:50:17.166Z,100.00
2023-01-30T23:52:45.460Z,100.00
2023-01-30T23:55:13.639Z,100.00
2023-01-30T23:57:41.888Z,100.00
